St. George, Utah Weather observations

Data are for observation ending at time listed.
 Day   Time    Ave.   Ave.  Ave.  Vector   Max.   Stn.    Total    Solar   Ave.  
  of    of     Air    Rel.  Wind   Wind    Wind   Baro.  Precip.   Rad.    Soil  
Year   Day     Temp.  Hum.  Speed  Dir.    Gust   Pres.                    Temp. 
2015   (MST)    F      %     mph   deg.    mph     mb.     in.     W/m2     F   
------------------------------------------------------------------------------
  90    1:40   57.5    34    0.8   326      1.8   921.0    0.00       0    68.1
  90    1:50   57.1    37    0.8     5      1.8   920.9    0.00       0    68.0
  90    2:00   56.9    38    0.5    64      1.9   920.9    0.00       0    67.9
  90    2:10   57.7    35    1.7   357      2.9   920.9    0.00       0    67.8
  90    2:20   58.2    33    0.5   347      1.5   920.9    0.00       0    67.7
  90    2:30   57.9    36    0.8    16      1.9   920.7    0.00       0    67.6
  90    2:40   57.1    36    0.6   257      2.0   920.7    0.00       0    67.5
  90    2:50   56.5    34    0.4   347      1.8   920.7    0.00       0    67.4
  90    3:00   56.3    37    0.9    75      2.4   920.6    0.00       0    67.3
  90    3:10   55.7    39    0.6   151      1.5   920.6    0.00       0    67.2
  90    3:20   55.1    44    0.5    30      1.6   920.6    0.00       0    67.1
  90    3:30   54.5    45    0.9   235      2.6   920.5    0.00       0    67.0
  90    3:40   54.2    44    0.5   190      1.7   920.6    0.00       0    66.9
  90    3:50   54.0    44    1.0   357      1.8   920.6    0.00       0    66.8
  90    4:00   53.9    44    0.5    12      1.6   920.6    0.00       0    66.7
  90    4:10   53.8    44    0.8   358      1.4   920.5    0.00       0    66.6
  90    4:20   53.5    46    0.3    47      1.2   920.5    0.00       0    66.5
  90    4:30   53.2    48    0.4   192      1.3   920.5    0.00       0    66.4
  90    4:40   52.9    48    0.5   310      1.6   920.5    0.00       0    66.3
  90    4:50   52.2    48    0.2   320      1.1   920.6    0.00       0    66.2
  90    5:00   52.3    49    1.0   357      2.5   920.6    0.00       0    66.1
  90    5:10   52.4    50    0.6   345      2.0   920.7    0.00       0    66.0
  90    5:20   52.1    48    0.9   199      2.7   920.7    0.00       0    65.9
  90    5:30   51.5    51    0.3    96      1.9   920.7    0.00       0    65.8
  90    5:40   51.0    49    0.2   128      1.5   920.8    0.00       0    65.7
  90    5:50   50.7    46    0.3   176      1.5   920.9    0.00       0    65.6
  90    6:00   50.4    48    0.1   208      1.3   920.9    0.00       0    65.5
  90    6:10   50.3    50    0.4   353      1.2   920.9    0.00       0    65.4
  90    6:20   50.0    54    0.0   204      0.8   920.9    0.00       3    65.3
  90    6:30   49.6    54    0.1   201      0.9   921.0    0.00       9    65.2
  90    6:40   49.8    53    0.4   122      1.3   921.2    0.00      19    65.1
  90    6:50   50.2    52    0.7    47      1.5   921.1    0.00      27    65.0
  90    7:00   50.9    46    1.1   161      2.3   921.2    0.00      36    64.9
  90    7:10   52.5    42    0.8   201      2.2   921.3    0.00      41    64.8
  90    7:20   53.3    41    0.5   210      1.5   921.3    0.00      41    64.7
  90    7:30   53.5    42    1.3   196      2.7   921.3    0.00      42    64.7
  90    7:40   53.3    44    1.5   183      2.4   921.4    0.00      60    64.6
  90    7:50   53.6    42    1.1   181      3.0   921.3    0.00     156    64.5
  90    8:00   54.4    40    1.5   182      2.7   921.3    0.00     269    64.4
  90    8:10   55.3    39    1.3   183      2.8   921.3    0.00     257    64.3
  90    8:20   56.1    38    0.7   153      2.3   921.3    0.00     277    64.3
  90    8:30   58.3    36    0.9   180      2.6   921.3    0.00     353    64.2
  90    8:40   60.2    33    0.7   205      2.1   921.3    0.00     402    64.2
  90    8:50   60.7    31    1.8   182      3.4   921.2    0.00     436    64.1
  90    9:00   61.3    30    1.2   177      2.9   921.2    0.00     475    64.1
  90    9:10   63.7    27    1.5   182      3.7   921.1    0.00     510    64.1
  90    9:20   63.7    28    1.6   196      3.4   921.0    0.00     541    64.1
  90    9:30   64.7    26    1.3   216      3.7   921.0    0.00     527    64.1
  90    9:40   65.3    26    1.7   183      3.7   920.9    0.00     566    64.1
  90    9:50   66.3    25    2.1   190      4.2   920.8    0.00     611    64.1
  90   10:00   67.0    24    1.4   179      3.2   920.7    0.00     642    64.1
  90   10:10   68.1    22    1.3   192      2.9   920.6    0.00     669    64.1
  90   10:20   68.9    22    1.7   176      5.0   920.4    0.00     658    64.1
  90   10:30   69.6    22    1.8   199      4.4   920.3    0.00     702    64.1
  90   10:40   69.9    20    2.2   191      5.4   920.3    0.00     680    64.1
  90   10:50   71.7    21    2.1   177      5.3   920.1    0.00     736    64.1
  90   11:00   72.1    20    1.9   184      5.7   919.9    0.00     756    64.1
  90   11:10   73.0    19    2.3   184      4.7   919.7    0.00     693    64.2
  90   11:20   73.1    19    2.5   192      4.6   919.6    0.00     632    64.2
  90   11:30   73.9    18    2.2   178      4.5   919.4    0.00     500    64.2
  90   11:40   74.3    18    2.5   184      5.1   919.3    0.00     676    64.3
  90   11:50   74.8    18    2.6   202      5.7   919.1    0.00     665    64.3
  90   12:00   76.0    18    1.6   240      4.6   918.9    0.00     602    64.4
  90   12:10   78.1    17    1.1   231      5.3   918.8    0.00     793    64.5
  90   12:20   77.8    17    2.2   231      5.9   918.6    0.00     658    64.6
  90   12:30   78.7    16    1.5   317      3.4   918.4    0.00     749    64.7
  90   12:40   80.0    16    1.5   198      3.7   918.2    0.00     781    64.8
  90   12:50   80.1    14    2.6   194      5.6   918.0    0.00     573    64.9
  90   13:00   80.9    14    1.6   237      5.0   917.7    0.00     795    65.1
  90   13:10   82.0    14    2.6   233      6.8   917.5    0.00     715    65.2
  90   13:20   82.4    13    3.3   247      7.7   917.4    0.00     635    65.4
  90   13:30   82.2    12    3.9   205     10.7   917.2    0.00     508    65.6
  90   13:40   81.3    13    4.3   192      8.8   917.1    0.00     502    65.8
  90   13:50   81.4    13    3.3   197      8.2   916.9    0.00     541    66.0
  90   14:00   82.3    12    6.2   224     16.9   916.7    0.00     510    66.2
  90   14:10   82.3    12    7.2   239     14.6   916.5    0.00     436    66.4
  90   14:20   82.3    12    6.7   239     13.2   916.3    0.00     530    66.6
  90   14:30   82.4    12    6.6   239     13.5   916.2    0.00     519    66.8
  90   14:40   82.7    12    6.7   254     13.7   916.0    0.00     700    67.0
  90   14:50   82.9    12    6.4   255     14.1   915.9    0.00     680    67.2
  90   15:00   83.8    12    6.6   221     12.5   915.6    0.00     769    67.4
  90   15:10   83.6    12    6.1   234     13.7   915.4    0.00     722    67.5
  90   15:20   83.8    11    7.6   236     15.1   915.2    0.00     723    67.7
  90   15:30   83.7    11    5.2   233     11.2   915.1    0.00     679    67.9
  90   15:40   83.9    10    6.2   230     12.6   914.9    0.00     616    68.1
  90   15:50   84.5    10    5.9   234     13.0   914.6    0.00     646    68.2
  90   16:00   84.7    10    6.7   224     14.3   914.5    0.00     631    68.4
  90   16:10   84.3    10    6.4   205     13.2   914.1    0.00     455    68.5
  90   16:20   85.2    10    5.6   244     13.0   914.1    0.00     585    68.7
  90   16:30   85.2    10    5.7   248     11.0   914.0    0.00     515    68.9
  90   16:40   85.1    10    6.6   240     19.9   913.8    0.00     444    69.1
  90   16:50   84.9     9    7.6   235     15.9   913.7    0.00     450    69.2
  90   17:00   84.8    10    7.6   235     15.7   913.8    0.00     400    69.4
  90   17:10   84.5    10    6.3   246     12.5   913.7    0.00     361    69.5
  90   17:20   84.3    10    7.4   228     15.5   913.6    0.00     328    69.7
  90   17:30   84.0    11    6.7   239     13.4   913.6    0.00     292    69.8
  90   17:40   83.9    11    5.7   236     13.8   913.5    0.00     256    70.0
  90   17:50   83.8    11    4.6   232      9.1   913.4    0.00     222    70.1
  90   18:00   83.1    11    5.4   238     10.7   913.3    0.00     182    70.2
  90   18:10   82.6    11    5.9   229     11.0   913.2    0.00     116    70.2
  90   18:20   82.4    11    5.3   233     12.3   913.2    0.00      38    70.3
  90   18:30   82.4    11    2.6   226      6.1   913.1    0.00      61    70.3
  90   18:40   81.9    11    3.5   226      7.9   913.1    0.00      36    70.3
  90   18:50   81.0    12    3.3   217     11.6   913.1    0.00      12    70.4
  90   19:00   80.8    12    4.2   207      9.4   913.0    0.00       7    70.4
  90   19:10   79.8    13    1.0   188      2.9   913.0    0.00       3    70.4
  90   19:20   77.5    14    1.1   179      4.4   913.0    0.00       1    70.4
  90   19:30   77.8    14    2.9   207      7.7   913.0    0.00       0    70.3
  90   19:40   78.1    14    3.6   227      7.3   913.2    0.00       0    70.3
  90   19:50   78.0    14    4.2   202      8.3   913.3    0.00       0    70.3
  90   20:00   77.5    14    4.2   187      7.4   913.3    0.00       0    70.2
  90   20:10   76.3    15    1.6   195      4.2   913.4    0.00       0    70.2
  90   20:20   74.6    16    0.2   340      1.0   913.4    0.00       0    70.1
  90   20:30   73.7    17    0.5   179      2.6   913.5    0.00       0    70.1
  90   20:40   72.7    18    0.7   108      4.2   913.6    0.00       0    70.1
  90   20:50   71.9    18    0.8   136      2.1   913.6    0.00       0    70.1
  90   21:00   71.2    19    0.9    63      2.3   913.6    0.00       0    70.0
  90   21:10   70.8    19    0.9    55      2.7   913.7    0.00       0    69.9
  90   21:20   69.8    21    1.2    46      2.6   913.8    0.00       0    69.8
  90   21:30   69.8    19    1.2    22      2.5   913.8    0.00       0    69.7
  90   21:40   69.5    20    1.1    51      2.4   913.7    0.00       0    69.7
  90   21:50   68.9    20    1.7    51      3.1   913.7    0.00       0    69.6
  90   22:00   69.3    16    2.0    45      3.7   913.7    0.00       0    69.5
  90   22:10   69.8    16    1.5    50      3.4   913.8    0.00       0    69.4
  90   22:20   67.9    18    1.2   254      2.1   913.8    0.00       0    69.3
  90   22:30   67.3    20    1.3   318      2.6   913.8    0.00       0    69.2
  90   22:40   66.6    22    0.8    18      2.3   914.0    0.00       0    69.2
  90   22:50   65.7    22    0.7    26      1.7   914.1    0.00       0    69.1
  90   23:00   66.5    22    1.8     4      4.5   914.1    0.00       0    69.0
  90   23:10   66.4    21    1.0    65      2.9   914.1    0.00       0    68.9
  90   23:20   65.8    22    2.2   160      5.8   914.2    0.00       0    68.8
  90   23:30   65.3    22    0.5   311      1.5   914.2    0.00       0    68.7
  90   23:40   64.6    22    0.4   249      1.6   914.3    0.00       0    68.6
  90   23:50   63.6    25    0.7    51      1.8   914.3    0.00       0    68.5
  91    0:00   64.3    22    0.7    46      2.1   914.3    0.00       0    68.5
  91    0:10   64.6    23    0.5    41      2.6   914.3    0.00       0    68.4
  91    0:20   64.7    23    1.2   133      2.2   914.3    0.00       0    68.3
  91    0:30   62.7    27    1.0   343      2.3   914.3    0.00       0    68.2
  91    0:40   63.3    24    1.0    49      2.9   914.3    0.00       0    68.1
  91    0:50   63.5    24    0.6    34      2.9   914.4    0.00       0    68.0
  91    1:00   64.0    22    1.1    38      3.3   914.3    0.00       0    67.9
  91    1:10   64.7    22    1.2    44      4.2   914.3    0.00       0    67.8
  91    1:20   65.6    22    1.7    51      4.2   914.3    0.00       0    67.7
  91    1:30   66.2    21    1.8    36      5.9   914.4    0.00       0    67.6

Return to St. George, Utah graphs page.


Western Regional Climate Center,wrcc@dri.edu